Avioradar koristi kolačiće da bi Vam omogućio jednostavnije i ugodnije korištenje stranice. 

AVIORADAR - Hrvatski zrakoplovni portal

METAR & TAF

[Source: ADDS]
METAR
LDZA 062300Z VRB02KT CAVOK 17/14 Q1006 NOSIG =
LDZA 061725Z 0618/0718 20005KT 9999 SCT045 TX27/0713Z TN14/0703Z PROB40 0623/0705 2000 MIFG BR PROB30 TEMPO 0700/0704 0500 FG BECMG 0707/0709 22008KT PROB30 TEMPO 0713/0718 VRB15KT TSRA FEW035CB SCT040 LDSP 062300Z AUTO 36004KT 340V080 CAVOK 16/14 Q1008 =
LDSP 061725Z 0618/0718 31006KT CAVOK TX26/0713Z TN16/0703Z BECMG 0710/0712 23008KT BECMG 0715/0717 16006KT LDDU 062300Z 09007KT CAVOK 17/14 Q1009 =
LDDU 061725Z 0618/0718 08007KT CAVOK TX22/0713Z TN16/0703Z PROB40 TEMPO 0618/0621 02010KT BECMG 0706/0708 15010KT LDPL 062300Z 08004KT CAVOK 15/15 Q1007 =
LDPL 061725Z 0618/0718 VRB02KT 9999 FEW045 TX25/0713Z TN16/0703Z BECMG 0700/0702 10008KT PROB30 TEMPO 0708/0712 VRB10KT FEW040CB BECMG 0708/0710 16010KT PROB40 TEMPO 0716/0718 TSRA SCT035 FEW050CB LDZD 062300Z 10005KT CAVOK 15/14 Q1009 =
LDZD 061725Z 0618/0718 24005KT 9999 FEW030 TX26/0713Z TN14/0701Z PROB30 TEMPO 0622/0702 3000 BCFG PROB40 0704/0708 16007KT BECMG 0708/0710 24010KT BECMG 0716/0718 15008KT LDRI 062300Z 12004KT CAVOK 16/15 Q1007 =
LDRI 061725Z 0618/0718 VRB02KT 9999 FEW050 TX25/0713Z TN16/0703Z BECMG 0708/0710 17010KT PROB40 TEMPO 0709/0714 -TSRA FEW035CB LDOS 062300Z 00000KT CAVOK 16/15 Q1007 =
LDOS 061725Z 0618/0718 10006KT 9999 SCT045 TX28/0712Z TN15/0704Z TEMPO 0710/0718 FEW040TCU PROB40 TEMPO 0711/0715 VRB18G28KT 4000 TSRAGR SCT035CB BKN040 PROB30 TEMPO 0717/0718 TSRA FEW035CB
TAF
LDZA 061725Z 0618/0718 20005KT 9999 SCT045 TX27/0713Z TN14/0703Z PROB40 0623/0705 2000 MIFG BR PROB30 TEMPO 0700/0704 0500 FG BECMG 0707/0709 22008KT PROB30 TEMPO 0713/0718 VRB15KT TSRA FEW035CB SCT040 =
LDSP 061725Z 0618/0718 31006KT CAVOK TX26/0713Z TN16/0703Z BECMG 0710/0712 23008KT BECMG 0715/0717 16006KT =
LDDU 061725Z 0618/0718 08007KT CAVOK TX22/0713Z TN16/0703Z PROB40 TEMPO 0618/0621 02010KT BECMG 0706/0708 15010KT =
LDPL 061725Z 0618/0718 VRB02KT 9999 FEW045 TX25/0713Z TN16/0703Z BECMG 0700/0702 10008KT PROB30 TEMPO 0708/0712 VRB10KT FEW040CB BECMG 0708/0710 16010KT PROB40 TEMPO 0716/0718 TSRA SCT035 FEW050CB =
LDZD 061725Z 0618/0718 24005KT 9999 FEW030 TX26/0713Z TN14/0701Z PROB30 TEMPO 0622/0702 3000 BCFG PROB40 0704/0708 16007KT BECMG 0708/0710 24010KT BECMG 0716/0718 15008KT =
LDRI 061725Z 0618/0718 VRB02KT 9999 FEW050 TX25/0713Z TN16/0703Z BECMG 0708/0710 17010KT PROB40 TEMPO 0709/0714 -TSRA FEW035CB =
LDOS 061725Z 0618/0718 10006KT 9999 SCT045 TX28/0712Z TN15/0704Z TEMPO 0710/0718 FEW040TCU PROB40 TEMPO 0711/0715 VRB18G28KT 4000 TSRAGR SCT035CB BKN040 PROB30 TEMPO 0717/0718 TSRA FEW035CB =
SR / SS: 03:06 / 18:43 UTC (Zagreb 2020-06-07)